Aviation Digital Data Service (ADDS)

Output produced by METARs form (0757 UTC 18 January 2018)
found at http://aviationweather.gov/adds/metars/
 
KFKL 180520Z 1806/1906 23007KT P6SM SKC 
     FM181400 23008G18KT P6SM SKC 
     FM190200 22008KT P6SM SKC